Time;durP1;ratioP1;P1;durP2;ratioP2;P2;SDS_P1;SDS_P2;PMS_P1;PMS_P2;Temp;Humidity;BMP_temperature;BMP_pressure;BME280_temperature;BME280_humidity;BME280_pressure;Samples;Min_cycle;Max_cycle;Signal;HPM_P1;HPM_P2
2022/01/25 00:08:56;;;;;;;76.53;39.58;;;4.00;99.90;;;;;;5055191;28;20071;-74
2022/01/25 00:27:43;;;;;;;78.10;41.30;;;3.90;99.90;;;;;;5055041;28;20049;-74
2022/01/25 00:30:23;;;;;;;74.38;39.72;;;3.90;99.90;;;;;;5054740;28;20484;-74
2022/01/25 00:32:49;;;;;;;76.53;40.13;;;3.90;99.90;;;;;;5054678;28;20049;-74
2022/01/25 00:35:15;;;;;;;76.60;42.22;;;3.90;99.90;;;;;;5054211;28;20056;-73
2022/01/25 00:37:40;;;;;;;78.80;42.30;;;3.90;99.90;;;;;;5054222;28;20044;-74
2022/01/25 00:40:06;;;;;;;79.38;41.70;;;4.00;99.90;;;;;;5020955;28;20052;-73
2022/01/25 00:42:32;;;;;;;73.82;40.00;;;4.00;99.90;;;;;;5054335;28;20045;-74
2022/01/25 00:44:58;;;;;;;78.15;40.63;;;4.00;99.90;;;;;;5053921;28;20442;-75
2022/01/25 00:47:25;;;;;;;78.95;40.05;;;3.90;99.90;;;;;;5054279;28;20037;-73
2022/01/25 00:49:53;;;;;;;76.70;39.65;;;3.90;99.90;;;;;;5037523;28;20080;-74
2022/01/25 00:52:25;;;;;;;72.82;38.70;;;4.00;99.90;;;;;;5037345;28;20048;-75
2022/01/25 00:54:52;;;;;;;78.97;41.60;;;3.90;99.90;;;;;;5037099;28;21005;-75
2022/01/25 00:57:18;;;;;;;79.55;39.92;;;3.90;99.90;;;;;;5020877;28;20086;-73
2022/01/25 00:59:44;;;;;;;79.85;40.25;;;4.00;99.90;;;;;;5037605;28;20045;-73
2022/01/25 01:02:13;;;;;;;80.90;41.05;;;3.90;99.90;;;;;;5036426;28;20048;-73
2022/01/25 01:04:41;;;;;;;79.88;41.33;;;3.90;99.90;;;;;;5053392;28;20360;-75
2022/01/25 01:07:08;;;;;;;83.97;41.17;;;3.90;99.90;;;;;;5067822;28;20040;-75
2022/01/25 01:09:37;;;;;;;81.18;42.58;;;3.90;99.90;;;;;;5075362;28;20040;-74
2022/01/25 01:12:11;;;;;;;81.53;40.10;;;3.90;99.90;;;;;;5058257;28;20048;-75
2022/01/25 01:31:04;;;;;;;82.55;42.38;;;3.80;99.90;;;;;;5074247;28;20047;-75
2022/01/25 01:34:27;;;;;;;84.70;41.38;;;3.80;99.90;;;;;;5074227;28;20044;-75
2022/01/25 01:40:00;;;;;;;79.13;40.85;;;3.80;99.90;;;;;;5067009;28;20040;-74
2022/01/25 01:44:53;;;;;;;82.45;41.85;;;3.80;99.90;;;;;;5073677;28;20487;-74
2022/01/25 01:47:25;;;;;;;82.60;41.97;;;3.80;99.90;;;;;;5074142;28;20047;-74
2022/01/25 01:49:51;;;;;;;83.65;41.78;;;3.80;99.90;;;;;;5073966;28;20048;-73
2022/01/25 01:52:17;;;;;;;87.07;41.00;;;3.80;99.90;;;;;;5073682;28;20040;-74
2022/01/25 01:54:42;;;;;;;82.00;41.53;;;3.80;99.90;;;;;;5073829;28;20036;-74
2022/01/25 01:57:08;;;;;;;86.07;41.95;;;3.80;99.90;;;;;;5073408;28;20083;-74
2022/01/25 01:59:35;;;;;;;80.30;41.55;;;3.80;99.90;;;;;;5074401;28;20039;-74
2022/01/25 02:02:01;;;;;;;87.28;42.42;;;3.80;99.90;;;;;;5056909;28;20048;-74
2022/01/25 02:04:27;;;;;;;81.85;40.75;;;3.80;99.90;;;;;;5073327;28;20489;-74
2022/01/25 02:06:53;;;;;;;86.35;42.13;;;3.80;99.90;;;;;;5059402;28;20028;-73
2022/01/25 02:09:19;;;;;;;81.78;39.63;;;3.80;99.90;;;;;;5053479;28;20043;-74
2022/01/25 02:11:45;;;;;;;85.75;42.40;;;3.80;99.90;;;;;;5053192;28;20094;-74
2022/01/25 02:14:13;;;;;;;80.20;39.70;;;3.80;99.90;;;;;;5037029;28;20131;-75
2022/01/25 02:24:44;;;;;;;85.10;41.78;;;3.70;99.90;;;;;;5053596;28;20045;-75
2022/01/25 02:27:10;;;;;;;82.13;41.22;;;3.70;99.90;;;;;;5053369;28;20048;-74
2022/01/25 02:29:37;;;;;;;86.20;41.55;;;3.70;99.90;;;;;;5036656;28;20041;-75
2022/01/25 02:32:06;;;;;;;89.13;43.08;;;3.70;99.90;;;;;;5053096;28;20036;-74
2022/01/25 02:34:31;;;;;;;83.55;41.95;;;3.70;99.90;;;;;;5059475;28;20421;-74
2022/01/25 02:36:59;;;;;;;82.78;40.28;;;3.70;99.90;;;;;;5054971;28;20486;-74
2022/01/25 02:39:25;;;;;;;87.03;41.97;;;3.70;99.90;;;;;;5053193;28;20387;-75
2022/01/25 02:41:52;;;;;;;85.57;41.28;;;3.70;99.90;;;;;;5052668;28;20037;-74
2022/01/25 02:44:25;;;;;;;87.50;41.55;;;3.70;99.90;;;;;;5052876;28;20068;-74
2022/01/25 02:49:18;;;;;;;86.43;42.15;;;3.70;99.90;;;;;;5052498;28;20052;-74
2022/01/25 02:51:46;;;;;;;82.78;41.28;;;3.70;99.90;;;;;;5052984;28;20044;-73
2022/01/25 02:54:14;;;;;;;87.55;41.63;;;3.70;99.90;;;;;;5036400;28;20037;-75
2022/01/25 02:56:43;;;;;;;89.32;43.25;;;3.70;99.90;;;;;;5036017;28;20514;-74
2022/01/25 02:59:09;;;;;;;88.15;41.83;;;3.70;99.90;;;;;;5036910;28;20099;-74
2022/01/25 03:01:36;;;;;;;88.82;43.47;;;3.70;99.90;;;;;;5052248;28;20129;-74
2022/01/25 03:04:03;;;;;;;86.53;42.13;;;3.70;99.90;;;;;;5052079;28;20128;-73
2022/01/25 03:06:29;;;;;;;84.80;40.75;;;3.70;99.90;;;;;;5036254;28;20095;-75
2022/01/25 03:08:55;;;;;;;88.28;41.35;;;3.70;99.90;;;;;;5036035;28;20467;-73
2022/01/25 03:11:23;;;;;;;90.63;42.90;;;3.70;99.90;;;;;;5052729;28;20039;-74
2022/01/25 03:13:54;;;;;;;87.60;42.38;;;3.60;99.90;;;;;;5035892;28;20094;-74
2022/01/25 03:16:30;;;;;;;87.18;41.92;;;3.60;99.90;;;;;;5052184;28;20136;-75
2022/01/25 03:19:00;;;;;;;87.22;40.67;;;3.60;99.90;;;;;;5052533;28;20044;-74
2022/01/25 03:23:53;;;;;;;90.15;42.47;;;3.60;99.90;;;;;;5052518;28;20483;-73
2022/01/25 03:26:19;;;;;;;85.80;42.78;;;3.60;99.90;;;;;;5041475;28;20072;-75
2022/01/25 03:28:45;;;;;;;88.03;40.80;;;3.60;99.90;;;;;;5044656;28;20052;-73
2022/01/25 03:31:11;;;;;;;90.65;42.25;;;3.60;99.90;;;;;;5051833;28;20053;-74
2022/01/25 03:33:37;;;;;;;90.72;41.85;;;3.60;99.90;;;;;;5052270;28;20051;-73
2022/01/25 03:36:04;;;;;;;85.10;40.60;;;3.60;99.90;;;;;;5052253;28;20047;-74
2022/01/25 03:38:30;;;;;;;84.50;40.40;;;3.60;99.90;;;;;;5035640;28;20395;-73
2022/01/25 03:40:55;;;;;;;85.97;40.72;;;3.60;99.90;;;;;;5052003;28;20521;-74
2022/01/25 03:43:21;;;;;;;80.40;39.45;;;3.60;99.90;;;;;;5051795;28;20051;-74
2022/01/25 03:46:10;;;;;;;84.38;41.47;;;3.60;99.90;;;;;;5051755;28;20053;-74
2022/01/25 03:51:20;;;;;;;87.22;40.85;;;3.60;99.90;;;;;;5051991;28;20051;-74
2022/01/25 03:53:46;;;;;;;85.78;40.55;;;3.60;99.90;;;;;;5035367;28;20037;-74
2022/01/25 03:56:11;;;;;;;84.32;39.60;;;3.60;99.90;;;;;;5056722;28;20032;-75
2022/01/25 03:58:37;;;;;;;88.95;40.58;;;3.60;99.90;;;;;;5072297;28;20048;-74
2022/01/25 04:01:03;;;;;;;91.18;41.83;;;3.70;99.90;;;;;;5071864;28;20044;-74
2022/01/25 04:03:35;;;;;;;85.43;40.40;;;3.60;99.90;;;;;;5054797;28;20051;-74
2022/01/25 04:06:02;;;;;;;90.40;42.40;;;3.70;99.90;;;;;;5071994;28;20052;-74
2022/01/25 04:08:27;;;;;;;93.68;41.88;;;3.70;99.90;;;;;;5055031;28;20083;-74
2022/01/25 04:10:53;;;;;;;86.80;40.17;;;3.70;99.90;;;;;;5071707;28;20150;-73
2022/01/25 04:13:19;;;;;;;86.13;40.53;;;3.70;99.90;;;;;;5072162;28;20047;-73
2022/01/25 04:15:46;;;;;;;87.07;41.97;;;3.70;99.90;;;;;;5067703;28;20078;-74
2022/01/25 04:18:34;;;;;;;84.60;39.95;;;3.70;99.90;;;;;;5070095;28;20040;-73
2022/01/25 04:26:09;;;;;;;87.57;40.42;;;3.70;99.90;;;;;;5071733;28;20452;-75
2022/01/25 04:28:35;;;;;;;93.03;42.05;;;3.60;99.90;;;;;;5072081;28;20033;-74
2022/01/25 04:31:01;;;;;;;85.78;40.03;;;3.60;99.90;;;;;;5071749;28;20091;-74
2022/01/25 04:33:38;;;;;;;83.78;39.08;;;3.60;99.90;;;;;;5071587;28;20135;-74
2022/01/25 04:49:32;;;;;;;89.28;41.10;;;3.70;99.90;;;;;;5054907;28;20056;-73
2022/01/25 04:52:11;;;;;;;90.25;42.83;;;3.70;99.90;;;;;;5055058;28;20480;-74
2022/01/25 04:55:00;;;;;;;87.82;41.63;;;3.70;99.90;;;;;;5055342;28;20053;-74
2022/01/25 04:57:39;;;;;;;86.60;40.33;;;3.70;99.90;;;;;;5055418;28;20040;-74
2022/01/25 05:00:16;;;;;;;88.63;40.93;;;3.70;99.90;;;;;;5038514;28;20391;-74
2022/01/25 05:02:51;;;;;;;86.75;41.28;;;3.70;99.90;;;;;;5054563;28;20183;-74
2022/01/25 05:07:57;;;;;;;86.07;40.15;;;3.70;99.90;;;;;;5065543;28;20047;-74
2022/01/25 05:10:23;;;;;;;85.60;41.33;;;3.70;99.90;;;;;;5040518;28;20079;-74
2022/01/25 05:13:15;;;;;;;89.38;41.45;;;3.70;99.90;;;;;;5054349;28;20131;-73
2022/01/25 05:18:22;;;;;;;90.20;43.20;;;3.70;99.90;;;;;;5054197;28;20049;-74
2022/01/25 05:23:31;;;;;;;89.00;41.03;;;3.60;99.90;;;;;;5054276;28;20045;-74
2022/01/25 05:25:57;;;;;;;87.20;40.15;;;3.60;99.90;;;;;;5054344;28;20379;-74
2022/01/25 05:28:23;;;;;;;89.90;40.78;;;3.70;99.90;;;;;;5071604;28;20036;-74
2022/01/25 05:30:49;;;;;;;87.05;41.47;;;3.60;99.90;;;;;;5058130;28;20062;-74
2022/01/25 05:33:14;;;;;;;95.13;42.05;;;3.60;99.90;;;;;;5074215;28;20036;-74
2022/01/25 05:35:40;;;;;;;88.82;40.53;;;3.60;99.90;;;;;;5057749;28;20185;-74
2022/01/25 05:38:06;;;;;;;91.82;42.05;;;3.60;99.90;;;;;;5057356;28;20048;-74
2022/01/25 05:40:47;;;;;;;88.05;41.72;;;3.60;99.90;;;;;;5057002;28;20051;-75
2022/01/25 05:48:47;;;;;;;91.43;41.47;;;3.60;99.90;;;;;;5056095;28;20048;-73
2022/01/25 05:51:13;;;;;;;90.07;40.63;;;3.60;99.90;;;;;;5055718;28;20114;-73
2022/01/25 05:53:42;;;;;;;89.03;41.80;;;3.60;99.90;;;;;;5063219;28;20056;-73
2022/01/25 05:56:08;;;;;;;90.88;41.72;;;3.60;99.90;;;;;;5073899;28;20131;-73
2022/01/25 05:58:34;;;;;;;90.72;42.55;;;3.60;99.90;;;;;;5037225;28;20465;-74
2022/01/25 06:01:00;;;;;;;91.60;42.67;;;3.60;99.90;;;;;;5053662;28;20561;-74
2022/01/25 06:03:26;;;;;;;88.93;40.58;;;3.60;99.90;;;;;;5052844;28;20041;-75
2022/01/25 06:05:52;;;;;;;91.32;41.50;;;3.60;99.90;;;;;;5054339;28;20037;-73
2022/01/25 06:08:17;;;;;;;83.28;40.20;;;3.60;99.90;;;;;;5053832;28;20037;-75
2022/01/25 06:10:43;;;;;;;83.65;40.78;;;3.60;99.90;;;;;;5053393;28;20498;-74
2022/01/25 06:13:09;;;;;;;95.10;42.53;;;3.70;99.90;;;;;;5056562;28;20050;-75
2022/01/25 06:15:34;;;;;;;90.97;41.40;;;3.70;99.90;;;;;;5056758;28;20072;-74
2022/01/25 06:18:01;;;;;;;87.35;40.92;;;3.70;99.90;;;;;;5073012;28;20051;-73
2022/01/25 06:20:28;;;;;;;90.05;40.83;;;3.60;99.90;;;;;;5073476;28;20386;-74
2022/01/25 06:22:54;;;;;;;88.10;40.70;;;3.70;99.90;;;;;;5056486;28;20040;-73
2022/01/25 06:25:20;;;;;;;87.88;40.17;;;3.70;99.90;;;;;;5073277;28;20037;-73
2022/01/25 06:27:45;;;;;;;86.25;40.50;;;3.70;99.90;;;;;;5043904;28;20041;-73
2022/01/25 06:30:18;;;;;;;89.22;38.13;;;3.70;99.90;;;;;;5053032;28;20033;-75
2022/01/25 06:32:45;;;;;;;85.45;40.67;;;3.70;99.90;;;;;;5036176;28;20513;-75
2022/01/25 06:35:11;;;;;;;83.10;39.45;;;3.60;99.90;;;;;;5053251;28;20093;-74
2022/01/25 06:37:37;;;;;;;89.60;41.05;;;3.70;99.90;;;;;;5053244;28;20032;-74
2022/01/25 06:40:07;;;;;;;91.22;41.60;;;3.60;99.90;;;;;;5036671;28;20146;-75
2022/01/25 06:42:33;;;;;;;;;;;3.60;99.90;;;;;;5070918;28;20036;-73
2022/01/25 06:45:02;;;;;;;89.65;40.30;;;3.60;99.90;;;;;;5072382;28;20375;-73
2022/01/25 06:47:28;;;;;;;89.75;39.95;;;3.60;99.90;;;;;;5072986;28;20041;-75
2022/01/25 06:49:54;;;;;;;90.22;40.13;;;3.70;99.90;;;;;;5055252;28;20039;-74
2022/01/25 06:52:19;;;;;;;90.30;39.22;;;3.70;99.90;;;;;;5073189;28;20043;-75
2022/01/25 06:54:45;;;;;;;89.57;42.00;;;3.70;99.90;;;;;;5072513;28;20048;-73
2022/01/25 06:57:11;;;;;;;91.85;42.45;;;3.70;99.90;;;;;;5051826;28;20066;-74
2022/01/25 06:59:37;;;;;;;98.70;43.88;;;3.70;99.90;;;;;;5043131;28;20041;-73
2022/01/25 07:02:03;;;;;;;93.35;41.72;;;3.70;99.90;;;;;;5071471;28;20060;-73
2022/01/25 07:04:29;;;;;;;86.97;39.85;;;3.70;99.90;;;;;;5055894;28;20178;-74
2022/01/25 07:06:54;;;;;;;86.78;40.35;;;3.70;99.90;;;;;;5059110;28;20123;-74
2022/01/25 07:09:20;;;;;;;91.82;42.50;;;3.70;99.90;;;;;;5035688;28;20045;-75
2022/01/25 07:11:46;;;;;;;88.45;40.55;;;3.70;99.90;;;;;;5052541;28;20148;-73
2022/01/25 07:14:12;;;;;;;95.28;42.05;;;3.70;99.90;;;;;;5052168;28;20483;-74
2022/01/25 07:16:37;;;;;;;88.32;40.40;;;3.70;99.90;;;;;;5052166;28;20431;-74
2022/01/25 07:19:03;;;;;;;92.88;39.72;;;3.70;99.90;;;;;;5052753;28;20546;-75
2022/01/25 07:21:29;;;;;;;163.43;72.53;;;3.70;99.90;;;;;;5052638;28;20497;-75
2022/01/25 07:23:54;;;;;;;135.10;60.92;;;3.70;99.90;;;;;;5035618;28;20037;-74
2022/01/25 07:26:20;;;;;;;119.03;53.47;;;3.70;99.90;;;;;;5052294;28;20153;-74
2022/01/25 07:28:49;;;;;;;98.28;43.55;;;3.70;99.90;;;;;;5035518;28;20045;-76
2022/01/25 07:31:15;;;;;;;93.88;41.42;;;3.70;99.90;;;;;;5052383;28;20504;-74
2022/01/25 07:33:41;;;;;;;85.15;38.85;;;3.70;99.90;;;;;;5052424;28;20084;-73
2022/01/25 07:36:06;;;;;;;91.30;40.75;;;3.60;99.90;;;;;;5058043;28;20040;-74
2022/01/25 07:38:32;;;;;;;90.28;38.97;;;3.70;99.90;;;;;;5072037;28;20036;-75
2022/01/25 07:40:59;;;;;;;87.30;37.90;;;3.70;99.90;;;;;;5072152;28;20502;-76
2022/01/25 07:43:26;;;;;;;84.63;37.38;;;3.70;99.90;;;;;;5055068;28;20040;-74
2022/01/25 07:45:53;;;;;;;89.03;38.75;;;3.60;99.90;;;;;;5071989;28;20040;-74
2022/01/25 07:48:20;;;;;;;91.85;40.65;;;3.60;99.90;;;;;;5055656;28;20040;-74
2022/01/25 07:50:47;;;;;;;90.32;39.28;;;3.60;99.90;;;;;;5072295;28;20041;-74
2022/01/25 07:53:12;;;;;;;96.25;41.63;;;3.60;99.90;;;;;;5055783;28;20066;-75
2022/01/25 07:55:38;;;;;;;93.75;39.88;;;3.60;99.90;;;;;;5055293;28;20115;-75
2022/01/25 07:58:05;;;;;;;82.03;35.97;;;3.60;99.90;;;;;;5071799;28;20043;-74
2022/01/25 08:00:30;;;;;;;91.03;40.03;;;3.60;99.90;;;;;;5072058;28;20037;-75
2022/01/25 08:02:57;;;;;;;88.93;40.40;;;3.60;99.90;;;;;;5069447;28;20389;-74
2022/01/25 08:05:25;;;;;;;90.75;38.88;;;3.60;99.90;;;;;;5034993;28;20052;-74
2022/01/25 08:07:51;;;;;;;97.95;40.65;;;3.60;99.90;;;;;;5035373;28;20196;-74
2022/01/25 08:10:17;;;;;;;93.88;41.30;;;3.60;99.90;;;;;;5035267;28;20048;-74
2022/01/25 08:12:43;;;;;;;96.00;42.35;;;3.60;99.90;;;;;;5052029;28;20033;-74
2022/01/25 08:15:09;;;;;;;95.47;39.67;;;3.60;99.90;;;;;;5039311;28;20135;-75
2022/01/25 08:17:35;;;;;;;91.00;39.35;;;3.70;99.90;;;;;;5055939;28;20041;-74
2022/01/25 08:20:02;;;;;;;95.88;40.75;;;3.60;99.90;;;;;;5055521;28;20051;-74
2022/01/25 08:22:28;;;;;;;89.03;40.47;;;3.60;99.90;;;;;;5055623;28;20037;-75
2022/01/25 08:24:54;;;;;;;85.43;39.08;;;3.60;99.90;;;;;;5038615;28;20045;-75
2022/01/25 08:27:22;;;;;;;90.13;38.95;;;3.60;99.90;;;;;;5038559;28;20098;-74
2022/01/25 08:29:49;;;;;;;86.85;38.72;;;3.70;99.90;;;;;;5056199;28;20051;-75
2022/01/25 08:32:14;;;;;;;89.78;39.92;;;3.70;99.90;;;;;;5055972;28;20044;-74
2022/01/25 08:34:40;;;;;;;91.97;38.58;;;3.70;99.90;;;;;;5056399;28;20037;-74
2022/01/25 08:37:06;;;;;;;85.30;38.67;;;3.70;99.90;;;;;;5038525;28;20048;-74
2022/01/25 08:39:31;;;;;;;91.28;39.25;;;3.70;99.90;;;;;;5055192;28;20052;-74
2022/01/25 08:41:57;;;;;;;88.95;40.70;;;3.70;99.90;;;;;;5054848;28;20469;-74
2022/01/25 08:44:23;;;;;;;88.72;37.50;;;3.70;99.90;;;;;;5055055;28;20128;-74
2022/01/25 08:46:49;;;;;;;88.20;38.10;;;3.70;99.90;;;;;;5039120;28;20140;-75
2022/01/25 08:49:15;;;;;;;88.72;39.28;;;3.70;99.90;;;;;;5038440;28;20123;-74
2022/01/25 08:51:40;;;;;;;91.50;39.45;;;3.70;99.90;;;;;;5038478;28;20036;-74
2022/01/25 08:54:06;;;;;;;93.28;39.85;;;3.70;99.90;;;;;;5038239;28;20099;-75
2022/01/25 08:56:32;;;;;;;91.35;38.50;;;3.70;99.90;;;;;;5065145;28;20037;-76
2022/01/25 08:58:58;;;;;;;93.75;40.60;;;3.60;99.90;;;;;;5074161;28;20040;-74
2022/01/25 09:01:25;;;;;;;93.10;38.55;;;3.60;99.90;;;;;;5058026;28;20543;-75
2022/01/25 09:03:51;;;;;;;94.35;38.90;;;3.60;99.90;;;;;;5074929;28;20047;-75
2022/01/25 09:06:18;;;;;;;97.00;40.80;;;3.70;99.90;;;;;;5074730;28;20382;-74
2022/01/25 09:08:44;;;;;;;90.07;38.78;;;3.70;99.90;;;;;;5074811;28;20043;-74
2022/01/25 09:11:10;;;;;;;95.10;41.10;;;3.70;99.90;;;;;;5074151;28;20033;-74
2022/01/25 09:13:36;;;;;;;93.65;39.35;;;3.70;99.90;;;;;;5074764;28;20044;-74
2022/01/25 09:16:02;;;;;;;93.10;39.28;;;3.70;99.90;;;;;;5075203;28;20110;-74
2022/01/25 09:18:28;;;;;;;91.32;38.03;;;3.70;99.90;;;;;;5074192;28;20036;-75
2022/01/25 09:20:55;;;;;;;91.22;38.97;;;3.70;99.90;;;;;;5054685;28;20033;-75
2022/01/25 09:23:23;;;;;;;93.32;37.58;;;3.70;99.90;;;;;;5037676;28;20049;-74
2022/01/25 09:25:50;;;;;;;88.72;37.97;;;3.70;99.90;;;;;;5036674;28;20051;-74
2022/01/25 09:28:16;;;;;;;91.13;37.60;;;3.80;99.90;;;;;;5054607;28;20383;-74
2022/01/25 09:30:42;;;;;;;92.50;37.42;;;3.70;99.90;;;;;;5054465;28;20049;-74
2022/01/25 09:33:08;;;;;;;96.70;38.78;;;3.70;99.90;;;;;;5053936;28;20041;-74
2022/01/25 09:35:34;;;;;;;91.63;37.85;;;3.70;99.90;;;;;;5037599;28;20088;-74
2022/01/25 09:38:00;;;;;;;91.25;40.03;;;3.80;99.90;;;;;;5054241;28;20037;-73
2022/01/25 09:40:25;;;;;;;93.57;38.15;;;3.80;99.90;;;;;;5043375;28;20036;-81
2022/01/25 09:42:54;;;;;;;89.00;36.95;;;3.80;99.90;;;;;;5057099;28;20048;-73
2022/01/25 09:45:20;;;;;;;94.10;37.75;;;3.80;99.90;;;;;;5073822;28;20044;-76
2022/01/25 09:47:47;;;;;;;90.50;37.03;;;3.80;99.90;;;;;;5074001;28;20048;-75
2022/01/25 09:50:13;;;;;;;85.75;35.75;;;3.80;99.90;;;;;;5074102;28;20036;-74
2022/01/25 09:52:41;;;;;;;87.07;36.88;;;3.80;99.90;;;;;;5074073;28;20123;-77
2022/01/25 09:55:16;;;;;;;83.68;36.95;;;3.80;99.90;;;;;;5040908;28;20115;-75
2022/01/25 09:57:42;;;;;;;84.28;36.03;;;3.80;99.90;;;;;;5037578;28;20079;-74
2022/01/25 10:00:11;;;;;;;90.07;36.78;;;3.90;99.90;;;;;;5054150;28;20037;-75
2022/01/25 10:02:51;;;;;;;87.03;36.97;;;3.90;99.90;;;;;;5036683;28;20488;-75
2022/01/25 10:05:23;;;;;;;87.03;36.20;;;3.90;99.90;;;;;;5053105;28;20041;-76
2022/01/25 10:08:16;;;;;;;87.93;38.17;;;3.90;99.90;;;;;;5053904;28;20097;-76
2022/01/25 10:10:46;;;;;;;91.50;37.58;;;3.90;99.90;;;;;;5053171;28;20053;-75
2022/01/25 10:13:27;;;;;;;88.38;36.97;;;3.90;99.90;;;;;;5037005;28;20084;-75
2022/01/25 10:16:07;;;;;;;85.97;38.00;;;4.00;99.90;;;;;;5036499;28;20051;-75
2022/01/25 10:19:14;;;;;;;91.82;39.15;;;4.00;99.90;;;;;;5049997;28;20037;-75
2022/01/25 10:21:42;;;;;;;94.57;39.47;;;4.00;99.90;;;;;;5034265;28;20049;-76
2022/01/25 10:24:20;;;;;;;105.80;47.60;;;4.00;99.90;;;;;;5052806;28;20029;-76
2022/01/25 10:26:53;;;;;;;94.55;42.35;;;4.00;99.90;;;;;;5053941;28;20087;-76
2022/01/25 10:29:25;;;;;;;96.05;40.05;;;4.00;99.90;;;;;;5053603;28;20040;-76
2022/01/25 10:31:56;;;;;;;94.32;40.55;;;4.00;99.90;;;;;;5039468;28;20140;-75
2022/01/25 10:34:29;;;;;;;93.50;38.13;;;4.10;99.90;;;;;;5073003;28;20055;-76
2022/01/25 10:36:59;;;;;;;90.35;38.08;;;4.10;99.90;;;;;;5072705;28;20054;-75
2022/01/25 10:39:31;;;;;;;88.80;36.92;;;4.00;99.90;;;;;;5073533;28;20075;-75
2022/01/25 10:42:17;;;;;;;84.00;35.63;;;4.00;99.90;;;;;;5056466;28;20040;-75
2022/01/25 10:45:02;;;;;;;85.72;38.15;;;4.10;99.90;;;;;;5072762;28;20132;-76
2022/01/25 10:47:39;;;;;;;88.75;37.72;;;4.10;99.90;;;;;;5055572;28;20086;-75
2022/01/25 10:50:16;;;;;;;89.95;37.75;;;4.10;99.90;;;;;;5052715;28;20090;-74
2022/01/25 10:52:43;;;;;;;83.82;38.45;;;4.10;99.90;;;;;;5052839;28;20475;-74
2022/01/25 10:55:09;;;;;;;90.70;39.45;;;4.10;99.90;;;;;;5052724;28;20029;-74
2022/01/25 10:57:35;;;;;;;93.25;45.22;;;4.10;99.90;;;;;;5052393;28;20479;-74
2022/01/25 11:00:09;;;;;;;93.38;42.10;;;4.10;99.90;;;;;;5052549;28;20037;-74
2022/01/25 11:02:47;;;;;;;89.70;37.90;;;4.10;99.90;;;;;;5046778;28;20150;-76
2022/01/25 11:05:13;;;;;;;91.93;38.67;;;4.20;99.90;;;;;;5072465;28;20036;-74
2022/01/25 11:07:44;;;;;;;85.50;37.13;;;4.10;99.90;;;;;;5055559;28;20116;-74
2022/01/25 11:10:14;;;;;;;;;;;4.10;99.90;;;;;;5072713;28;20041;-75
2022/01/25 11:12:46;;;;;;;83.28;34.88;;;4.10;99.90;;;;;;5072931;28;19916;-74
2022/01/25 11:15:12;;;;;;;90.28;36.50;;;4.10;99.90;;;;;;5072593;28;20048;-74
2022/01/25 11:17:39;;;;;;;83.43;37.35;;;4.10;99.90;;;;;;5037597;28;20041;-73
2022/01/25 11:20:08;;;;;;;95.20;38.35;;;4.10;99.90;;;;;;5052176;28;20033;-73
2022/01/25 11:22:34;;;;;;;85.60;38.00;;;4.20;99.90;;;;;;5035288;28;20087;-73
2022/01/25 11:25:03;;;;;;;85.45;37.95;;;4.20;99.90;;;;;;5035842;28;20076;-74
2022/01/25 11:27:30;;;;;;;96.50;36.65;;;4.20;99.90;;;;;;5052542;28;20045;-73
2022/01/25 11:30:00;;;;;;;93.25;38.58;;;4.20;99.90;;;;;;5052655;28;20049;-73
2022/01/25 11:32:31;;;;;;;89.10;37.55;;;4.20;99.90;;;;;;5043756;28;20115;-73
2022/01/25 11:34:58;;;;;;;89.93;39.03;;;4.20;99.90;;;;;;5054734;28;20045;-73
2022/01/25 11:37:42;;;;;;;84.82;36.70;;;4.30;99.90;;;;;;5055613;28;20529;-73
2022/01/25 11:40:35;;;;;;;87.85;35.88;;;4.30;99.90;;;;;;5072238;28;20037;-76
2022/01/25 11:43:15;;;;;;;90.45;36.83;;;4.30;99.90;;;;;;5071861;28;20044;-73
2022/01/25 11:45:44;;;;;;;90.03;37.05;;;4.30;99.90;;;;;;5053011;28;20044;-73
2022/01/25 11:48:10;;;;;;;83.35;36.30;;;4.30;99.90;;;;;;5055019;28;20048;-74
2022/01/25 11:50:39;;;;;;;87.55;36.80;;;4.30;99.90;;;;;;5054041;28;20041;-73
2022/01/25 11:53:14;;;;;;;85.60;36.55;;;4.30;99.90;;;;;;5054542;28;20463;-73
2022/01/25 11:55:42;;;;;;;82.57;35.47;;;4.30;99.90;;;;;;5038322;28;20041;-73
2022/01/25 11:58:11;;;;;;;82.70;36.60;;;4.30;99.90;;;;;;5038083;28;20048;-74
2022/01/25 12:00:49;;;;;;;80.13;34.88;;;4.30;99.90;;;;;;5054579;28;20495;-75
2022/01/25 12:03:31;;;;;;;87.93;38.28;;;4.30;99.90;;;;;;5039729;28;20053;-73
2022/01/25 12:06:09;;;;;;;85.05;35.55;;;4.30;99.90;;;;;;5055246;28;20048;-73
2022/01/25 12:09:06;;;;;;;85.80;35.20;;;4.40;99.90;;;;;;5055164;28;20470;-72
2022/01/25 12:11:59;;;;;;;89.28;37.75;;;4.30;99.90;;;;;;5055349;28;20106;-73
2022/01/25 12:14:38;;;;;;;85.25;35.97;;;4.30;99.90;;;;;;5062612;28;20425;-73
2022/01/25 12:17:04;;;;;;;90.75;37.42;;;4.40;99.90;;;;;;5071990;28;20082;-74
2022/01/25 12:19:44;;;;;;;89.40;37.03;;;4.30;99.90;;;;;;5057949;28;20049;-72
2022/01/25 12:22:15;;;;;;;81.95;34.53;;;4.30;99.90;;;;;;5074657;28;20506;-73
2022/01/25 12:24:58;;;;;;;92.20;37.05;;;4.30;99.90;;;;;;5074500;28;20079;-72
2022/01/25 12:27:54;;;;;;;86.65;36.42;;;4.30;99.90;;;;;;5074394;28;20083;-73
2022/01/25 12:30:26;;;;;;;91.32;37.05;;;4.30;99.90;;;;;;5072535;28;20127;-72
2022/01/25 12:33:00;;;;;;;92.20;36.88;;;4.30;99.90;;;;;;5062142;28;20120;-73
2022/01/25 12:35:37;;;;;;;83.10;35.97;;;4.30;99.90;;;;;;5042619;28;20064;-72
2022/01/25 12:38:09;;;;;;;89.47;35.58;;;4.30;99.90;;;;;;5063574;28;20505;-75
2022/01/25 12:40:38;;;;;;;86.63;35.47;;;4.30;99.90;;;;;;5074122;28;20045;-74
2022/01/25 12:43:38;;;;;;;85.93;35.75;;;4.30;99.90;;;;;;5057702;28;20127;-73
2022/01/25 12:46:08;;;;;;;86.72;36.47;;;4.30;99.90;;;;;;5072830;28;20041;-73
2022/01/25 12:48:47;;;;;;;87.93;36.15;;;4.30;99.90;;;;;;5050443;28;20043;-75
2022/01/25 12:51:15;;;;;;;87.85;35.85;;;4.30;99.90;;;;;;5045544;28;20040;-73
2022/01/25 12:53:44;;;;;;;86.10;36.42;;;4.30;99.90;;;;;;5064669;28;20044;-73
2022/01/25 12:56:16;;;;;;;87.63;35.45;;;4.30;99.90;;;;;;5046629;28;20037;-73
2022/01/25 12:58:43;;;;;;;84.43;35.80;;;4.30;99.90;;;;;;5062042;28;20036;-74
2022/01/25 13:01:15;;;;;;;85.57;35.78;;;4.30;99.90;;;;;;5046063;28;20033;-73
2022/01/25 13:03:43;;;;;;;82.18;35.08;;;4.30;99.90;;;;;;5064406;28;20035;-74
2022/01/25 13:06:21;;;;;;;83.60;33.08;;;4.30;99.90;;;;;;5063467;28;20033;-74
2022/01/25 13:09:06;;;;;;;80.25;33.83;;;4.30;99.90;;;;;;5063225;28;20099;-74
2022/01/25 13:16:56;;;;;;;78.25;34.55;;;4.20;99.90;;;;;;5062716;28;20048;-73
2022/01/25 13:19:49;;;;;;;81.60;33.15;;;4.20;99.90;;;;;;5064288;28;20036;-73
2022/01/25 13:22:17;;;;;;;84.72;32.78;;;4.20;99.90;;;;;;5048339;28;20131;-74
2022/01/25 13:24:55;;;;;;;86.70;34.47;;;4.20;99.90;;;;;;5059443;28;20080;-74
2022/01/25 13:27:22;;;;;;;85.75;34.90;;;4.20;99.90;;;;;;5063089;28;20040;-75
2022/01/25 13:32:37;;;;;;;83.50;34.22;;;4.20;99.90;;;;;;5062932;28;20041;-76
2022/01/25 13:35:22;;;;;;;85.05;35.60;;;4.20;99.90;;;;;;5063685;28;20056;-74
2022/01/25 13:38:05;;;;;;;86.15;33.88;;;4.20;99.90;;;;;;5061365;28;20119;-74
2022/01/25 13:40:50;;;;;;;82.97;32.70;;;4.20;99.90;;;;;;5061150;28;20076;-74
2022/01/25 13:45:57;;;;;;;83.10;32.25;;;4.20;99.90;;;;;;5063308;28;20143;-74
2022/01/25 13:48:24;;;;;;;83.53;34.40;;;4.20;99.90;;;;;;5057136;28;20072;-74
2022/01/25 13:50:56;;;;;;;85.18;33.33;;;4.20;99.90;;;;;;5065696;28;20363;-74
2022/01/25 13:53:22;;;;;;;89.70;33.13;;;4.20;99.90;;;;;;5056347;28;20047;-73
2022/01/25 13:55:50;;;;;;;80.72;34.78;;;4.20;99.90;;;;;;5072920;28;20080;-74
2022/01/25 13:58:24;;;;;;;81.47;33.72;;;4.20;99.90;;;;;;5072555;28;20040;-74
2022/01/25 14:00:51;;;;;;;78.35;33.38;;;4.20;99.90;;;;;;5072767;28;20123;-75
2022/01/25 14:03:17;;;;;;;85.80;33.45;;;4.20;99.90;;;;;;5069588;28;20052;-74
2022/01/25 14:05:43;;;;;;;82.60;33.67;;;4.20;99.90;;;;;;5073806;28;20124;-74
2022/01/25 14:08:09;;;;;;;85.18;34.08;;;4.20;99.90;;;;;;5056926;28;20139;-74
2022/01/25 14:10:35;;;;;;;87.28;34.30;;;4.20;99.90;;;;;;5056277;28;20037;-73
2022/01/25 14:24:06;;;;;;;92.93;36.50;;;4.10;99.90;;;;;;5066568;28;20482;-74
2022/01/25 14:26:32;;;;;;;88.07;35.95;;;4.20;99.90;;;;;;5071346;28;20047;-73
2022/01/25 14:29:05;;;;;;;84.93;33.90;;;4.20;99.90;;;;;;5070334;28;20041;-74
2022/01/25 14:31:31;;;;;;;85.15;33.85;;;4.20;99.90;;;;;;5068260;28;20040;-73
2022/01/25 14:34:00;;;;;;;86.80;35.63;;;4.20;99.90;;;;;;5052276;28;20056;-74
2022/01/25 14:36:29;;;;;;;85.20;32.83;;;4.20;99.90;;;;;;5053204;28;20451;-74
2022/01/25 14:38:56;;;;;;;89.72;37.80;;;4.20;99.90;;;;;;5053060;28;20052;-74
2022/01/25 14:41:33;;;;;;;83.75;34.33;;;4.20;99.90;;;;;;5038888;28;20130;-73
2022/01/25 14:44:04;;;;;;;83.22;34.30;;;4.20;99.90;;;;;;5054315;28;20040;-74
2022/01/25 14:46:40;;;;;;;84.97;33.25;;;4.20;99.90;;;;;;5070052;28;20037;-73